Accueil
METAR-TAF:

METAR-TAF

Aéroports :

Bruxelles, Belgique

Aéroport de Bruxelles. Zaventem

latitude: 50-54N, longitude: 004-32E, altitude: 55 m

Observation

Le bulletin a été fait il y a 19 minutes, à 18:20 UTC
Vent 6 kt de nord/nord-ouest
Température 18°C
Humidité 56%
Pression 1023 hPa
Visibilité 10 km ou plus
pas de nuages en-dessous de 1500 mètres et pas de cumulonimbus.

METAR: EBBR 231820Z 34006KT CAVOK 18/09 Q1023 NOSIG

Heure: 20:39 (18:39 UTC)

Prévision

Le bulletin a été fait il y a 1 heure et 9 minutes, à 17:30 UTC
Prévision valable du 23 à 18 UTC au 24 à 24 UTC
Vent 6 kt de nord
Visibilité 10 km ou plus
Nuages épars à une hauteur de 4000 ft
Probabilité 30% :
Temporairement
du 24 à 03 UTC au 24 à 06 UTC
Nuages fragmentés à une hauteur de 500 ft

TAF: EBBR 231730Z 2318/2424 35006KT 9999 SCT040 PROB30 TEMPO 2403/2406 BKN005

Observations et prévisions météorologiques de plus de 4000 aéroports (messages METAR et TAF).

Les stations disponibles sont représentées par des disques jaunes et rouges sur la carte.

Passer la souris dessus pour voir le nom de la station.

Cliquer dessus pour voir les observations et prévisions météorologiques.

Pour changer de carte: cliquez sur les boutons verts avec une croix noire pour zoomer, sur le bouton vert avec un tiret pour effectuer un zoom arrière, ou sur les flèches vertes pour les cartes adjacentes.


METAR-TAF: